Time;durP1;ratioP1;P1;durP2;ratioP2;P2;SDS_P1;SDS_P2;PMS_P1;PMS_P2;Temp;Humidity;BMP_temperature;BMP_pressure;BME280_temperature;BME280_humidity;BME280_pressure;Samples;Min_cycle;Max_cycle;Signal;HPM_P1;HPM_P2
2022/04/08 00:01:43;;;;;;;650.00;226.23;;;;;;;;;;5110165;28;20449;-94
2022/04/08 00:04:09;;;;;;;614.60;209.25;;;;;;;;;;5109495;28;20015;-92
2022/04/08 00:06:35;;;;;;;641.00;220.88;;;;;;;;;;5108958;28;20421;-92
2022/04/08 00:09:01;;;;;;;630.83;217.70;;;;;;;;;;5109050;28;20108;-92
2022/04/08 00:11:27;;;;;;;659.60;228.57;;;;;;;;;;5109027;28;20059;-92
2022/04/08 00:13:54;;;;;;;648.80;223.63;;;;;;;;;;5109169;28;20027;-93
2022/04/08 00:16:20;;;;;;;664.58;231.43;;;;;;;;;;5108812;28;20505;-91
2022/04/08 00:18:47;;;;;;;669.50;234.80;;;;;;;;;;5090790;28;20027;-89
2022/04/08 00:21:13;;;;;;;660.47;232.40;;;;;;;;;;5110046;28;20088;-93
2022/04/08 00:23:39;;;;;;;665.13;233.55;;;;;;;;;;5109486;28;20418;-91
2022/04/08 00:26:06;;;;;;;658.65;229.93;;;;;;;;;;5108677;28;20131;-93
2022/04/08 00:28:32;;;;;;;664.55;232.32;;;;;;;;;;5108796;28;20022;-91
2022/04/08 00:30:58;;;;;;;671.83;234.35;;;;;;;;;;5108770;28;20023;-93
2022/04/08 00:33:24;;;;;;;650.40;227.70;;;;;;;;;;5108596;28;20467;-92
2022/04/08 00:35:59;;;;;;;666.88;233.77;;;;;;;;;;5110100;28;20421;-94
2022/04/08 00:38:25;;;;;;;654.72;228.68;;;;;;;;;;5109374;28;20480;-90
2022/04/08 00:40:51;;;;;;;642.78;224.65;;;;;;;;;;5109112;28;20491;-92
2022/04/08 00:43:19;;;;;;;628.42;215.38;;;;;;;;;;5109426;28;20020;-88
2022/04/08 00:45:45;;;;;;;643.97;221.27;;;;;;;;;;5111295;28;20491;-82
2022/04/08 00:48:11;;;;;;;654.00;226.30;;;;;;;;;;5111515;28;20028;-92
2022/04/08 00:50:38;;;;;;;658.13;227.70;;;;;;;;;;5111130;28;20453;-90
2022/04/08 00:53:05;;;;;;;656.42;227.95;;;;;;;;;;5093685;28;20077;-91
2022/04/08 00:55:31;;;;;;;671.53;235.63;;;;;;;;;;5112275;28;20023;-87
2022/04/08 00:58:02;;;;;;;671.17;236.63;;;;;;;;;;5094042;28;20096;-90
2022/04/08 01:00:28;;;;;;;675.35;236.82;;;;;;;;;;5112238;28;20073;-89
2022/04/08 01:02:54;;;;;;;664.60;232.52;;;;;;;;;;5112116;28;20024;-90
2022/04/08 01:05:20;;;;;;;655.17;228.02;;;;;;;;;;5111889;28;20024;-89
2022/04/08 01:07:46;;;;;;;663.55;229.93;;;;;;;;;;5111760;28;20403;-86
2022/04/08 01:10:12;;;;;;;645.28;223.68;;;;;;;;;;5112676;28;20072;-85
2022/04/08 01:12:38;;;;;;;660.40;228.50;;;;;;;;;;5111676;28;20433;-85
2022/04/08 01:15:04;;;;;;;663.72;228.63;;;;;;;;;;5111759;28;20455;-86
2022/04/08 01:17:30;;;;;;;651.65;224.93;;;;;;;;;;5111600;28;20028;-86
2022/04/08 01:19:56;;;;;;;648.13;224.23;;;;;;;;;;5111625;28;20072;-84
2022/04/08 01:22:23;;;;;;;656.08;226.40;;;;;;;;;;5111491;28;20098;-85
2022/04/08 01:24:49;;;;;;;651.28;223.25;;;;;;;;;;5111473;28;20038;-85
2022/04/08 01:27:19;;;;;;;657.88;226.68;;;;;;;;;;5112178;28;20040;-87
2022/04/08 01:29:45;;;;;;;659.05;225.80;;;;;;;;;;5112090;28;20039;-84
2022/04/08 01:32:11;;;;;;;665.55;226.68;;;;;;;;;;5111876;28;20365;-86
2022/04/08 01:34:37;;;;;;;652.95;225.20;;;;;;;;;;5111211;28;20551;-85
2022/04/08 01:37:03;;;;;;;667.67;231.05;;;;;;;;;;5111342;28;20095;-84
2022/04/08 01:39:29;;;;;;;686.10;238.25;;;;;;;;;;5111224;28;20032;-87
2022/04/08 01:41:55;;;;;;;672.58;235.57;;;;;;;;;;5111141;28;20096;-87
2022/04/08 01:44:21;;;;;;;670.45;235.25;;;;;;;;;;5111103;28;20111;-87
2022/04/08 01:46:48;;;;;;;676.28;236.63;;;;;;;;;;5111538;28;20093;-80
2022/04/08 01:49:14;;;;;;;670.70;234.57;;;;;;;;;;5112078;28;20028;-88
2022/04/08 01:51:40;;;;;;;677.75;238.15;;;;;;;;;;5111222;28;20441;-89
2022/04/08 01:54:06;;;;;;;678.78;239.50;;;;;;;;;;5110994;28;20023;-82
2022/04/08 01:56:32;;;;;;;685.90;243.13;;;;;;;;;;5110953;28;20024;-84
2022/04/08 01:58:58;;;;;;;684.55;240.77;;;;;;;;;;5110797;28;20027;-86
2022/04/08 02:01:24;;;;;;;641.65;224.15;;;;;;;;;;5110746;28;20023;-85
2022/04/08 02:03:50;;;;;;;674.17;236.88;;;;;;;;;;5111016;28;20030;-89
2022/04/08 02:06:16;;;;;;;666.33;233.18;;;;;;;;;;5111376;28;20026;-85
2022/04/08 02:08:42;;;;;;;662.00;232.15;;;;;;;;;;5110583;28;20107;-86
2022/04/08 02:11:08;;;;;;;668.58;237.07;;;;;;;;;;5110479;28;20686;-84
2022/04/08 02:13:34;;;;;;;668.50;235.68;;;;;;;;;;5110479;28;20493;-85
2022/04/08 02:16:00;;;;;;;677.08;238.30;;;;;;;;;;5110632;28;20095;-85
2022/04/08 02:18:26;;;;;;;672.85;241.23;;;;;;;;;;5110543;28;20028;-85
2022/04/08 02:20:53;;;;;;;672.35;240.43;;;;;;;;;;5110348;28;20100;-88
2022/04/08 02:23:19;;;;;;;667.92;236.80;;;;;;;;;;5092789;28;20031;-86
2022/04/08 02:25:46;;;;;;;666.53;234.43;;;;;;;;;;5110821;28;20084;-90
2022/04/08 02:28:12;;;;;;;622.93;214.60;;;;;;;;;;5111039;28;20028;-84
2022/04/08 02:30:39;;;;;;;626.63;215.18;;;;;;;;;;5110759;28;20531;-88
2022/04/08 02:33:05;;;;;;;629.47;218.20;;;;;;;;;;5110477;28;20102;-91
2022/04/08 02:35:31;;;;;;;626.30;217.05;;;;;;;;;;5092381;28;20068;-91
2022/04/08 02:37:58;;;;;;;607.67;209.18;;;;;;;;;;5092374;28;20031;-90
2022/04/08 02:40:24;;;;;;;644.42;226.73;;;;;;;;;;5110867;28;20034;-89
2022/04/08 02:42:50;;;;;;;645.17;224.40;;;;;;;;;;5093037;28;20034;-84
2022/04/08 02:45:17;;;;;;;678.13;237.40;;;;;;;;;;5111441;28;20459;-87
2022/04/08 02:47:43;;;;;;;670.60;238.55;;;;;;;;;;5092010;28;20024;-88
2022/04/08 02:50:10;;;;;;;688.97;244.13;;;;;;;;;;5110231;28;20023;-93
2022/04/08 02:52:36;;;;;;;686.20;245.32;;;;;;;;;;5110343;28;20073;-86
2022/04/08 02:55:03;;;;;;;688.42;245.00;;;;;;;;;;5092061;28;20118;-92
2022/04/08 02:57:29;;;;;;;690.35;245.00;;;;;;;;;;5110440;28;20053;-93
2022/04/08 02:59:55;;;;;;;682.83;243.63;;;;;;;;;;5110196;28;20015;-89
2022/04/08 03:02:21;;;;;;;666.90;237.15;;;;;;;;;;5110385;28;20026;-81
2022/04/08 03:04:47;;;;;;;685.88;244.45;;;;;;;;;;5110973;28;20467;-90
2022/04/08 03:07:13;;;;;;;679.00;241.35;;;;;;;;;;5109960;28;20433;-89
2022/04/08 03:09:39;;;;;;;684.75;245.85;;;;;;;;;;5109789;28;20027;-92
2022/04/08 03:12:06;;;;;;;689.75;247.18;;;;;;;;;;5109094;28;20028;-86
2022/04/08 03:14:32;;;;;;;616.50;214.45;;;;;;;;;;5109541;28;20107;-89
2022/04/08 03:16:58;;;;;;;679.95;244.75;;;;;;;;;;5109722;28;20023;-90
2022/04/08 03:19:24;;;;;;;677.92;243.63;;;;;;;;;;5109565;28;20020;-86
2022/04/08 03:21:50;;;;;;;658.20;234.50;;;;;;;;;;5092227;28;20034;-88
2022/04/08 03:24:16;;;;;;;659.15;232.55;;;;;;;;;;5091170;28;20034;-88
2022/04/08 03:26:43;;;;;;;628.85;220.40;;;;;;;;;;5091187;28;20674;-90
2022/04/08 03:29:09;;;;;;;683.33;246.57;;;;;;;;;;5109326;28;20024;-89
2022/04/08 03:31:35;;;;;;;679.38;245.82;;;;;;;;;;5109574;28;20024;-92
2022/04/08 03:34:02;;;;;;;571.72;194.48;;;;;;;;;;5109377;28;20051;-90
2022/04/08 03:36:28;;;;;;;638.80;228.13;;;;;;;;;;5109281;28;20475;-88
2022/04/08 03:38:54;;;;;;;565.10;192.32;;;;;;;;;;5109344;28;20107;-88
2022/04/08 03:41:20;;;;;;;686.78;247.98;;;;;;;;;;5110212;28;20098;-90
2022/04/08 03:43:46;;;;;;;593.55;204.98;;;;;;;;;;5091233;28;20115;-89
2022/04/08 03:46:13;;;;;;;607.88;210.68;;;;;;;;;;5109068;28;20027;-87
2022/04/08 03:48:42;;;;;;;571.33;194.95;;;;;;;;;;5090794;28;20024;-92
2022/04/08 03:51:09;;;;;;;6.95;2.13;;;;;;;;;;5109498;28;20020;-87
2022/04/08 03:53:35;;;;;;;5.70;1.88;;;;;;;;;;5109030;28;20467;-86
2022/04/08 03:56:02;;;;;;;7.07;2.33;;;;;;;;;;5107943;28;20020;-87
2022/04/08 03:58:28;;;;;;;6.05;2.00;;;;;;;;;;5109026;28;20057;-86
2022/04/08 04:00:54;;;;;;;5.18;2.33;;;;;;;;;;5109163;28;20019;-86
2022/04/08 04:03:20;;;;;;;8.18;2.33;;;;;;;;;;5109768;28;20468;-86
2022/04/08 04:05:46;;;;;;;6.43;2.42;;;;;;;;;;5108687;28;20027;-85
2022/04/08 04:08:18;;;;;;;10.93;2.40;;;;;;;;;;5108677;28;20027;-86
2022/04/08 04:10:44;;;;;;;5.68;2.15;;;;;;;;;;5107725;28;20684;-86
2022/04/08 04:13:10;;;;;;;4.93;2.00;;;;;;;;;;5108903;28;20020;-86
2022/04/08 04:15:36;;;;;;;7.30;2.17;;;;;;;;;;5108812;28;20463;-89
2022/04/08 04:18:44;;;;;;;4.45;1.90;;;;;;;;;;5112780;28;20023;-93
2022/04/08 04:21:12;;;;;;;5.80;2.10;;;;;;;;;;5053931;28;20048;-90
2022/04/08 04:26:32;;;;;;;3.95;2.20;;;;;;;;;;5128232;27;19924;-92
2022/04/08 04:29:06;;;;;;;4.63;2.08;;;;;;;;;;5104124;28;20036;-92
2022/04/08 04:31:32;;;;;;;3.85;1.70;;;;;;;;;;5120752;28;20019;-93
2022/04/08 04:39:53;;;;;;;3.90;1.65;;;;;;;;;;5083554;27;20058;-93
2022/04/08 04:45:39;;;;;;;4.85;1.60;;;;;;;;;;5071996;28;20423;-92
2022/04/08 04:48:53;;;;;;;1.58;1.30;;;;;;;;;;5071685;27;20130;-93
2022/04/08 04:51:16;;;;;;;4.70;1.48;;;;;;;;;;5101738;27;20034;-92
2022/04/08 04:53:57;;;;;;;;;;;;;;;;;;;;;
2022/04/08 04:56:49;;;;;;;7.57;1.55;;;;;;;;;;5135179;27;20023;-92
2022/04/08 05:02:19;;;;;;;3.05;1.52;;;;;;;;;;4992885;28;20432;-93
2022/04/08 05:07:52;;;;;;;3.85;1.30;;;;;;;;;;5003873;28;20044;-89
2022/04/08 05:10:38;;;;;;;1.35;1.25;;;;;;;;;;5087713;27;20339;-93
2022/04/08 05:13:04;;;;;;;2.05;1.00;;;;;;;;;;5115673;27;20027;-94
2022/04/08 05:15:38;;;;;;;1.17;1.05;;;;;;;;;;5132860;27;20026;-93
2022/04/08 05:18:04;;;;;;;3.15;2.70;;;;;;;;;;5133663;27;20037;-93
2022/04/08 05:20:30;;;;;;;2.00;1.50;;;;;;;;;;5133793;27;20055;-93
2022/04/08 05:23:06;;;;;;;3.35;1.48;;;;;;;;;;5134540;27;20019;-93
2022/04/08 05:28:51;;;;;;;;;;;;;;;;;;;;;
2022/04/08 05:31:23;;;;;;;3.85;1.40;;;;;;;;;;5133578;27;20029;-91
2022/04/08 05:33:52;;;;;;;1.80;1.50;;;;;;;;;;5132350;27;20182;-91
2022/04/08 05:36:18;;;;;;;;;;;;;;;;;;5131758;27;20033;-92
2022/04/08 05:38:46;;;;;;;2.40;1.60;;;;;;;;;;5133130;27;19904;-91
2022/04/08 05:41:12;;;;;;;1.65;1.30;;;;;;;;;;5131892;27;20027;-90
2022/04/08 05:43:44;;;;;;;2.38;1.40;;;;;;;;;;5131837;27;20088;-90
2022/04/08 05:46:10;;;;;;;2.13;1.30;;;;;;;;;;5131370;27;20031;-92
2022/04/08 05:48:36;;;;;;;1.20;1.10;;;;;;;;;;5133507;27;20030;-91
2022/04/08 05:51:02;;;;;;;2.47;1.30;;;;;;;;;;5132576;27;20023;-92
2022/04/08 05:53:29;;;;;;;2.78;1.33;;;;;;;;;;5133401;27;20027;-91
2022/04/08 05:55:58;;;;;;;3.40;1.60;;;;;;;;;;5131506;27;20386;-91
2022/04/08 05:58:25;;;;;;;5.88;1.65;;;;;;;;;;5131011;27;20027;-91
2022/04/08 06:00:51;;;;;;;4.10;1.73;;;;;;;;;;5132289;27;20034;-90
2022/04/08 06:03:17;;;;;;;4.60;1.80;;;;;;;;;;5092023;28;20369;-90
2022/04/08 06:05:43;;;;;;;8.40;2.10;;;;;;;;;;5092831;28;20495;-89
2022/04/08 06:08:09;;;;;;;7.93;2.30;;;;;;;;;;5112127;28;20106;-91
2022/04/08 06:10:36;;;;;;;9.52;2.28;;;;;;;;;;5111537;28;20024;-89
2022/04/08 06:13:02;;;;;;;7.20;1.88;;;;;;;;;;5093113;28;20437;-88
2022/04/08 06:15:28;;;;;;;11.75;2.20;;;;;;;;;;5114766;28;20028;-89
2022/04/08 06:17:55;;;;;;;12.63;2.40;;;;;;;;;;5092896;28;20509;-88
2022/04/08 06:20:21;;;;;;;12.02;2.28;;;;;;;;;;5111197;28;20222;-89
2022/04/08 06:22:48;;;;;;;14.43;2.65;;;;;;;;;;5092795;28;20412;-89
2022/04/08 06:25:15;;;;;;;12.55;2.33;;;;;;;;;;5092670;28;20072;-89
2022/04/08 06:27:44;;;;;;;8.10;2.28;;;;;;;;;;5110735;28;20040;-88
2022/04/08 06:30:11;;;;;;;7.75;2.10;;;;;;;;;;5111029;28;20034;-88
2022/04/08 06:32:38;;;;;;;9.10;2.15;;;;;;;;;;5092379;28;20020;-87
2022/04/08 06:35:04;;;;;;;8.85;2.28;;;;;;;;;;5092457;28;20082;-87
2022/04/08 06:37:30;;;;;;;8.80;2.03;;;;;;;;;;5111474;28;20042;-88
2022/04/08 06:39:56;;;;;;;8.77;2.38;;;;;;;;;;5110785;28;20023;-88
2022/04/08 06:42:23;;;;;;;9.27;2.72;;;;;;;;;;5110765;28;20020;-90
2022/04/08 06:44:49;;;;;;;6.60;1.90;;;;;;;;;;5110750;28;20047;-87
2022/04/08 06:47:15;;;;;;;5.70;1.92;;;;;;;;;;5109483;28;20081;-87
2022/04/08 06:49:44;;;;;;;8.45;1.98;;;;;;;;;;5110467;28;20023;-88
2022/04/08 06:52:11;;;;;;;8.60;2.20;;;;;;;;;;5110470;28;20020;-88
2022/04/08 06:54:37;;;;;;;5.75;2.10;;;;;;;;;;5110348;28;20051;-89
2022/04/08 06:57:03;;;;;;;10.05;2.22;;;;;;;;;;5112346;28;20024;-90
2022/04/08 06:59:29;;;;;;;7.43;1.85;;;;;;;;;;5114075;28;20551;-90
2022/04/08 07:01:55;;;;;;;3.38;1.52;;;;;;;;;;5115309;28;20027;-89
2022/04/08 07:04:21;;;;;;;8.63;1.75;;;;;;;;;;5110451;28;20031;-90
2022/04/08 07:06:47;;;;;;;5.00;1.50;;;;;;;;;;5110180;28;20039;-90
2022/04/08 07:09:13;;;;;;;6.85;1.48;;;;;;;;;;5110063;28;20031;-88
2022/04/08 07:11:42;;;;;;;4.80;1.45;;;;;;;;;;5092179;28;20111;-90
2022/04/08 07:14:08;;;;;;;5.75;1.70;;;;;;;;;;5091776;28;20037;-90
2022/04/08 07:16:34;;;;;;;5.15;1.80;;;;;;;;;;5110571;28;20537;-89
2022/04/08 07:19:00;;;;;;;5.68;1.38;;;;;;;;;;5110898;28;20016;-89
2022/04/08 07:21:26;;;;;;;6.05;1.52;;;;;;;;;;5091773;28;20131;-90
2022/04/08 07:23:52;;;;;;;8.32;1.50;;;;;;;;;;5091648;28;20430;-91
2022/04/08 07:26:20;;;;;;;6.97;1.40;;;;;;;;;;5091293;28;20047;-90
2022/04/08 07:28:47;;;;;;;6.40;1.60;;;;;;;;;;5109967;28;20120;-89
2022/04/08 07:31:13;;;;;;;4.57;1.90;;;;;;;;;;5109933;28;20103;-90
2022/04/08 07:33:39;;;;;;;2.83;1.23;;;;;;;;;;5091544;28;20391;-89
2022/04/08 07:36:05;;;;;;;4.63;1.13;;;;;;;;;;5109873;28;20023;-90
2022/04/08 07:38:31;;;;;;;1.88;1.10;;;;;;;;;;5110466;28;20024;-89
2022/04/08 07:40:58;;;;;;;3.58;1.10;;;;;;;;;;5110134;28;20027;-89
2022/04/08 07:43:25;;;;;;;3.28;1.38;;;;;;;;;;5091452;28;20034;-89
2022/04/08 07:45:51;;;;;;;2.35;1.00;;;;;;;;;;5109461;28;20024;-90
2022/04/08 07:48:17;;;;;;;5.60;1.27;;;;;;;;;;5109669;28;20114;-90
2022/04/08 07:50:43;;;;;;;2.67;1.00;;;;;;;;;;5091701;28;20016;-90
2022/04/08 07:53:09;;;;;;;0.90;0.90;;;;;;;;;;5109627;28;20028;-90
2022/04/08 07:55:36;;;;;;;3.80;1.05;;;;;;;;;;5110239;28;20030;-90
2022/04/08 07:58:04;;;;;;;1.80;0.82;;;;;;;;;;5092510;28;20034;-89
2022/04/08 08:00:32;;;;;;;3.50;0.95;;;;;;;;;;5114187;28;20152;-88
2022/04/08 08:02:58;;;;;;;1.23;0.90;;;;;;;;;;5113520;28;20035;-89
2022/04/08 08:05:24;;;;;;;3.13;0.80;;;;;;;;;;5113382;28;20031;-89
2022/04/08 08:07:55;;;;;;;1.13;1.00;;;;;;;;;;5095110;28;20122;-90
2022/04/08 08:10:28;;;;;;;2.90;1.30;;;;;;;;;;5113523;28;20020;-90
2022/04/08 08:12:55;;;;;;;2.88;1.52;;;;;;;;;;5113776;28;20371;-90
2022/04/08 08:15:22;;;;;;;7.72;1.20;;;;;;;;;;5095268;28;20027;-89
2022/04/08 08:17:48;;;;;;;2.00;1.05;;;;;;;;;;5113213;28;20019;-89
2022/04/08 08:20:15;;;;;;;6.05;2.10;;;;;;;;;;5113056;28;20072;-89
2022/04/08 08:22:42;;;;;;;7.85;2.00;;;;;;;;;;5113080;28;20106;-89
2022/04/08 08:25:09;;;;;;;3.70;1.52;;;;;;;;;;5095110;28;20398;-91
2022/04/08 08:27:42;;;;;;;3.38;1.10;;;;;;;;;;5114140;28;20042;-89
2022/04/08 08:30:13;;;;;;;1.77;0.80;;;;;;;;;;5112976;28;20069;-90
2022/04/08 08:32:40;;;;;;;1.48;0.70;;;;;;;;;;5113044;28;20039;-89
2022/04/08 08:35:08;;;;;;;1.67;1.02;;;;;;;;;;5113878;28;20020;-90
2022/04/08 08:37:34;;;;;;;0.55;0.55;;;;;;;;;;5113824;28;20106;-89
2022/04/08 08:40:00;;;;;;;4.47;1.25;;;;;;;;;;5112873;28;20382;-89
2022/04/08 08:42:26;;;;;;;2.25;0.88;;;;;;;;;;5094490;28;20425;-89
2022/04/08 08:44:52;;;;;;;3.88;1.40;;;;;;;;;;5094497;28;20028;-89
2022/04/08 08:47:18;;;;;;;3.80;1.48;;;;;;;;;;5094243;28;20406;-90
2022/04/08 08:49:54;;;;;;;3.30;1.30;;;;;;;;;;5094522;28;20042;-90
2022/04/08 08:52:20;;;;;;;9.02;1.77;;;;;;;;;;5094245;28;20020;-89
2022/04/08 08:54:47;;;;;;;5.25;1.90;;;;;;;;;;5112435;28;20020;-89
2022/04/08 08:57:17;;;;;;;7.20;1.70;;;;;;;;;;5112597;28;20450;-88
2022/04/08 08:59:46;;;;;;;10.85;1.80;;;;;;;;;;5094311;28;20115;-89
2022/04/08 09:02:17;;;;;;;8.60;2.00;;;;;;;;;;5094191;28;20380;-91
2022/04/08 09:04:43;;;;;;;16.65;2.20;;;;;;;;;;5094385;28;20024;-89
2022/04/08 09:07:25;;;;;;;8.40;2.03;;;;;;;;;;5112955;28;20114;-89
2022/04/08 09:09:52;;;;;;;11.60;2.33;;;;;;;;;;5111544;28;20019;-90
2022/04/08 09:12:18;;;;;;;11.80;2.70;;;;;;;;;;5093929;28;20076;-89
2022/04/08 09:14:52;;;;;;;7.93;1.88;;;;;;;;;;5112413;28;20088;-90
2022/04/08 09:17:18;;;;;;;11.95;2.40;;;;;;;;;;5112212;28;20023;-89
2022/04/08 09:19:51;;;;;;;15.45;2.40;;;;;;;;;;5093888;28;20027;-90
2022/04/08 09:22:17;;;;;;;13.57;2.38;;;;;;;;;;5112144;28;20024;-90
2022/04/08 09:24:44;;;;;;;10.65;2.33;;;;;;;;;;5111924;28;20031;-89
2022/04/08 09:27:10;;;;;;;17.50;2.80;;;;;;;;;;5112777;28;20055;-90
2022/04/08 09:29:36;;;;;;;14.80;2.70;;;;;;;;;;5112787;28;20024;-88
2022/04/08 09:32:10;;;;;;;14.25;3.40;;;;;;;;;;5093893;28;20024;-89
2022/04/08 09:34:37;;;;;;;13.07;2.90;;;;;;;;;;5093515;28;20020;-89
2022/04/08 09:37:13;;;;;;;18.50;3.78;;;;;;;;;;5111731;28;20051;-89
2022/04/08 09:39:57;;;;;;;25.70;4.30;;;;;;;;;;5112695;28;20089;-90
2022/04/08 09:42:24;;;;;;;25.55;4.13;;;;;;;;;;5093317;28;20031;-90
2022/04/08 09:44:53;;;;;;;28.33;4.63;;;;;;;;;;5093379;28;20024;-90
2022/04/08 09:47:19;;;;;;;24.77;4.07;;;;;;;;;;5111510;28;20035;-90
2022/04/08 09:49:46;;;;;;;35.10;6.03;;;;;;;;;;5093227;28;20072;-90
2022/04/08 09:52:12;;;;;;;42.17;5.20;;;;;;;;;;5112379;28;20028;-88
2022/04/08 09:54:41;;;;;;;29.80;5.05;;;;;;;;;;5112306;28;20023;-90
2022/04/08 09:57:11;;;;;;;28.98;4.90;;;;;;;;;;5111743;28;20016;-90
2022/04/08 09:59:39;;;;;;;25.58;4.93;;;;;;;;;;5111681;28;20479;-90
2022/04/08 10:02:05;;;;;;;30.60;4.95;;;;;;;;;;5092947;28;20067;-89
2022/04/08 10:04:32;;;;;;;35.10;5.93;;;;;;;;;;5111483;28;20027;-90
2022/04/08 10:06:58;;;;;;;34.70;6.18;;;;;;;;;;5093003;28;20031;-89
2022/04/08 10:09:30;;;;;;;41.42;5.60;;;;;;;;;;5111462;28;20107;-91
2022/04/08 10:11:59;;;;;;;43.05;6.07;;;;;;;;;;5093565;28;20027;-90
2022/04/08 10:14:28;;;;;;;44.42;5.82;;;;;;;;;;5111250;28;20032;-89
2022/04/08 10:16:56;;;;;;;29.95;5.45;;;;;;;;;;5111141;28;20031;-90
2022/04/08 10:19:23;;;;;;;41.80;5.97;;;;;;;;;;5111022;28;20019;-90
2022/04/08 10:21:53;;;;;;;36.92;5.60;;;;;;;;;;5092706;28;20080;-90
2022/04/08 10:24:26;;;;;;;40.22;5.90;;;;;;;;;;5092817;28;20398;-89
2022/04/08 10:26:58;;;;;;;44.80;7.25;;;;;;;;;;5110779;28;20035;-90
2022/04/08 10:29:24;;;;;;;40.80;6.25;;;;;;;;;;5092506;28;20024;-90
2022/04/08 10:32:02;;;;;;;40.28;6.25;;;;;;;;;;5110773;28;20081;-89
2022/04/08 10:34:32;;;;;;;39.45;7.25;;;;;;;;;;5110759;28;20011;-89
2022/04/08 10:36:58;;;;;;;44.47;6.15;;;;;;;;;;5110817;28;20024;-88
2022/04/08 10:39:24;;;;;;;48.00;7.15;;;;;;;;;;5092044;28;20054;-90
2022/04/08 10:41:58;;;;;;;44.95;7.13;;;;;;;;;;5110040;28;20059;-88
2022/04/08 10:44:31;;;;;;;37.67;6.18;;;;;;;;;;5113709;28;20049;-89
2022/04/08 10:46:59;;;;;;;49.38;5.80;;;;;;;;;;5110273;28;20043;-90
2022/04/08 10:49:25;;;;;;;44.85;6.65;;;;;;;;;;5110096;28;20053;-88
2022/04/08 10:51:51;;;;;;;50.92;7.90;;;;;;;;;;5109955;28;20399;-88
2022/04/08 10:54:17;;;;;;;45.47;6.47;;;;;;;;;;5109766;28;20024;-86
2022/04/08 10:56:44;;;;;;;49.67;7.50;;;;;;;;;;5110607;28;20106;-89
2022/04/08 10:59:12;;;;;;;49.60;6.97;;;;;;;;;;5110161;28;20019;-88
2022/04/08 11:01:38;;;;;;;;;;;;;;;;;;5092373;28;20580;-90
2022/04/08 11:04:05;;;;;;;40.58;5.50;;;;;;;;;;5091917;28;19904;-91
2022/04/08 11:06:32;;;;;;;36.70;6.25;;;;;;;;;;5109492;28;20031;-88
2022/04/08 11:09:05;;;;;;;30.30;5.13;;;;;;;;;;5109754;28;20043;-87
2022/04/08 11:11:32;;;;;;;34.05;6.22;;;;;;;;;;5109176;28;20065;-89
2022/04/08 11:13:58;;;;;;;34.65;6.38;;;;;;;;;;5108949;28;20352;-87
2022/04/08 11:16:27;;;;;;;37.28;6.88;;;;;;;;;;5109837;28;20103;-89
2022/04/08 11:18:54;;;;;;;38.05;6.18;;;;;;;;;;5109684;28;20544;-87
2022/04/08 11:21:22;;;;;;;40.03;6.63;;;;;;;;;;5109592;28;20084;-88
2022/04/08 11:23:58;;;;;;;41.08;5.82;;;;;;;;;;5109657;28;20026;-89
2022/04/08 11:26:24;;;;;;;29.42;6.03;;;;;;;;;;5109765;28;20024;-87
2022/04/08 11:28:50;;;;;;;32.67;5.60;;;;;;;;;;5106933;28;20027;-87
2022/04/08 11:31:20;;;;;;;29.38;5.35;;;;;;;;;;5109643;28;20055;-90
2022/04/08 11:33:47;;;;;;;32.15;5.20;;;;;;;;;;5108639;28;20489;-87
2022/04/08 11:36:13;;;;;;;27.13;4.88;;;;;;;;;;5087218;28;20028;-86
2022/04/08 11:38:39;;;;;;;30.42;5.57;;;;;;;;;;5109069;28;20039;-88
2022/04/08 11:41:05;;;;;;;32.17;5.00;;;;;;;;;;5108660;28;20395;-88
2022/04/08 11:43:31;;;;;;;25.13;4.43;;;;;;;;;;5108510;28;20019;-87
2022/04/08 11:45:57;;;;;;;21.70;4.40;;;;;;;;;;5108883;28;20046;-87
2022/04/08 11:48:23;;;;;;;22.00;3.85;;;;;;;;;;5108738;28;20076;-86
2022/04/08 11:50:50;;;;;;;23.02;3.85;;;;;;;;;;5108724;28;20031;-86
2022/04/08 11:53:18;;;;;;;14.73;2.97;;;;;;;;;;5109611;28;20031;-89
2022/04/08 11:55:53;;;;;;;15.83;3.33;;;;;;;;;;5091875;28;20499;-87
2022/04/08 11:58:19;;;;;;;12.90;2.70;;;;;;;;;;5109067;28;20062;-86
2022/04/08 12:00:49;;;;;;;15.60;3.10;;;;;;;;;;5109577;28;20024;-88
2022/04/08 12:03:22;;;;;;;14.63;3.42;;;;;;;;;;5091554;28;20047;-88
2022/04/08 12:05:49;;;;;;;19.13;3.08;;;;;;;;;;5109854;28;20031;-85
2022/04/08 12:08:16;;;;;;;14.18;3.55;;;;;;;;;;5109535;28;20518;-90
2022/04/08 12:10:42;;;;;;;17.67;3.15;;;;;;;;;;5109724;28;20055;-88
2022/04/08 12:13:15;;;;;;;13.32;2.90;;;;;;;;;;5090691;28;20386;-87
2022/04/08 12:15:42;;;;;;;18.25;3.30;;;;;;;;;;5089600;28;20514;-87
2022/04/08 12:18:08;;;;;;;17.42;3.38;;;;;;;;;;5089607;28;20029;-85
2022/04/08 12:20:37;;;;;;;15.25;3.15;;;;;;;;;;5107850;28;20019;-86
2022/04/08 12:23:05;;;;;;;14.95;2.80;;;;;;;;;;5105377;28;20022;-87
2022/04/08 12:25:32;;;;;;;13.60;3.20;;;;;;;;;;5089425;28;20077;-87
2022/04/08 12:27:59;;;;;;;16.50;3.90;;;;;;;;;;5107952;28;20055;-88
2022/04/08 12:30:26;;;;;;;12.90;3.17;;;;;;;;;;5090362;28;20027;-87
2022/04/08 12:32:52;;;;;;;15.30;3.00;;;;;;;;;;5108258;28;20030;-87
2022/04/08 12:35:19;;;;;;;14.43;2.90;;;;;;;;;;5108041;28;20024;-87
2022/04/08 12:37:45;;;;;;;10.20;2.22;;;;;;;;;;5108358;28;20015;-87
2022/04/08 12:40:11;;;;;;;9.40;2.70;;;;;;;;;;5108592;28;20439;-87
2022/04/08 12:42:38;;;;;;;9.77;3.10;;;;;;;;;;5090051;28;20055;-90
2022/04/08 12:45:05;;;;;;;8.77;2.40;;;;;;;;;;5108958;28;20076;-87
2022/04/08 12:47:31;;;;;;;11.80;2.58;;;;;;;;;;5112261;28;20368;-88
2022/04/08 12:49:57;;;;;;;8.43;2.67;;;;;;;;;;5112279;28;20016;-86
2022/04/08 12:52:24;;;;;;;7.13;2.30;;;;;;;;;;5112094;28;20365;-89
2022/04/08 12:54:50;;;;;;;6.20;1.67;;;;;;;;;;5094460;28;20481;-87
2022/04/08 12:57:17;;;;;;;7.30;2.10;;;;;;;;;;5111588;28;20062;-86
2022/04/08 12:59:43;;;;;;;6.53;1.98;;;;;;;;;;5093740;28;20052;-88
2022/04/08 13:02:09;;;;;;;7.38;1.92;;;;;;;;;;5111974;28;20108;-89
2022/04/08 13:04:35;;;;;;;5.75;1.90;;;;;;;;;;5093671;28;20054;-88
2022/04/08 13:07:05;;;;;;;8.38;1.50;;;;;;;;;;5112012;28;20127;-88
2022/04/08 13:09:31;;;;;;;5.93;1.70;;;;;;;;;;5093293;28;20019;-88
2022/04/08 13:11:57;;;;;;;7.03;1.77;;;;;;;;;;5111898;28;20031;-87
2022/04/08 13:14:23;;;;;;;9.07;1.70;;;;;;;;;;5111943;28;20026;-88
2022/04/08 13:16:49;;;;;;;5.75;1.60;;;;;;;;;;5112426;28;20028;-86
2022/04/08 13:19:15;;;;;;;7.90;1.90;;;;;;;;;;5111531;28;20069;-87
2022/04/08 13:21:41;;;;;;;4.88;1.88;;;;;;;;;;5111815;28;20032;-89
2022/04/08 13:24:08;;;;;;;5.22;1.50;;;;;;;;;;5093093;28;20020;-89
2022/04/08 13:26:34;;;;;;;3.40;1.58;;;;;;;;;;5111631;28;20042;-87
2022/04/08 13:29:00;;;;;;;5.97;1.60;;;;;;;;;;5111695;28;20026;-89
2022/04/08 13:31:26;;;;;;;6.00;1.60;;;;;;;;;;5111238;28;20036;-86
2022/04/08 13:33:53;;;;;;;7.13;2.00;;;;;;;;;;5112069;28;20023;-87
2022/04/08 13:36:19;;;;;;;6.05;1.90;;;;;;;;;;5111853;28;20376;-89
2022/04/08 13:38:45;;;;;;;4.05;1.77;;;;;;;;;;5110857;28;20475;-87
2022/04/08 13:41:14;;;;;;;13.75;2.30;;;;;;;;;;5111545;28;20396;-90
2022/04/08 13:43:40;;;;;;;2.22;0.85;;;;;;;;;;5093292;28;20087;-91
2022/04/08 13:46:49;;;;;;;3.33;1.23;;;;;;;;;;5112375;28;20024;-92
2022/04/08 13:49:21;;;;;;;1.80;0.80;;;;;;;;;;5111385;28;20515;-91
2022/04/08 13:51:47;;;;;;;3.38;1.10;;;;;;;;;;5113727;28;20035;-92
2022/04/08 13:54:13;;;;;;;1.13;1.02;;;;;;;;;;5094814;28;20023;-91
2022/04/08 13:56:42;;;;;;;1.10;1.10;;;;;;;;;;5094278;28;20115;-91
2022/04/08 13:59:23;;;;;;;2.78;1.25;;;;;;;;;;5113100;28;20379;-91
2022/04/08 14:01:49;;;;;;;1.30;1.20;;;;;;;;;;5113226;28;20051;-87
2022/04/08 14:04:16;;;;;;;1.23;1.13;;;;;;;;;;5093993;28;20479;-89
2022/04/08 14:06:44;;;;;;;0.90;0.90;;;;;;;;;;5094437;28;20077;-88
2022/04/08 14:09:10;;;;;;;1.15;1.15;;;;;;;;;;5110353;28;20068;-87
2022/04/08 14:11:36;;;;;;;1.40;1.23;;;;;;;;;;5110172;28;20030;-91
2022/04/08 14:14:02;;;;;;;1.45;1.40;;;;;;;;;;5088581;28;20531;-88
2022/04/08 14:16:28;;;;;;;1.42;1.33;;;;;;;;;;5109442;28;20043;-87
2022/04/08 14:18:55;;;;;;;1.40;1.23;;;;;;;;;;5110956;28;20024;-87
2022/04/08 14:21:21;;;;;;;2.55;1.25;;;;;;;;;;5110499;28;20089;-87
2022/04/08 14:23:48;;;;;;;1.85;1.45;;;;;;;;;;5109437;28;20019;-87
2022/04/08 14:26:14;;;;;;;1.30;1.30;;;;;;;;;;5091009;28;20109;-93
2022/04/08 14:28:40;;;;;;;1.30;1.20;;;;;;;;;;5109009;28;20027;-86
2022/04/08 14:31:06;;;;;;;1.27;1.10;;;;;;;;;;5089667;28;20018;-86
2022/04/08 14:33:33;;;;;;;1.20;1.10;;;;;;;;;;5090557;28;20066;-87
2022/04/08 14:35:59;;;;;;;1.52;1.42;;;;;;;;;;5091147;28;20020;-87
2022/04/08 14:38:25;;;;;;;2.97;1.58;;;;;;;;;;5109811;28;20122;-86
2022/04/08 14:40:51;;;;;;;1.48;1.40;;;;;;;;;;5090925;28;20024;-88
2022/04/08 14:43:30;;;;;;;;;;;;;;;;;;;;;
2022/04/08 14:46:04;;;;;;;2.08;1.90;;;;;;;;;;5107718;28;20024;-89
2022/04/08 14:48:34;;;;;;;3.55;1.80;;;;;;;;;;5090479;28;20387;-92
2022/04/08 14:51:01;;;;;;;1.95;1.70;;;;;;;;;;5094014;28;20106;-90
2022/04/08 14:53:36;;;;;;;2.15;2.05;;;;;;;;;;5093294;28;20533;-92